Time;durP1;ratioP1;P1;durP2;ratioP2;P2;SDS_P1;SDS_P2;PMS_P1;PMS_P2;Temp;Humidity;BMP_temperature;BMP_pressure;BME280_temperature;BME280_humidity;BME280_pressure;Samples;Min_cycle;Max_cycle;Signal;HPM_P1;HPM_P2
2023/09/26 00:00:24;;;;;;;25.20;17.40;;;;;;;22.32;64.35;101331.34;108044;1255;71216;-66
2023/09/26 00:02:52;;;;;;;34.90;20.70;;;;;;;22.27;64.63;101329.53;107984;1258;61699;-67
2023/09/26 00:05:22;;;;;;;28.10;19.80;;;;;;;22.32;64.59;101330.66;108024;1258;60631;-66
2023/09/26 00:07:54;;;;;;;32.90;21.70;;;;;;;22.17;65.09;101327.30;107945;1254;73881;-66
2023/09/26 00:10:22;;;;;;;33.00;20.80;;;;;;;22.12;65.18;101325.31;108031;1256;70108;-66
2023/09/26 00:12:50;;;;;;;28.50;20.20;;;;;;;22.08;65.30;101325.60;108051;1255;72484;-67
2023/09/26 00:15:17;;;;;;;35.50;20.70;;;;;;;21.88;65.91;101326.73;107997;1254;61768;-68
2023/09/26 00:17:45;;;;;;;35.60;19.80;;;;;;;21.71;66.64;101328.21;107902;1255;59502;-66
2023/09/26 00:20:17;;;;;;;28.10;19.50;;;;;;;21.76;66.41;101332.17;108005;1257;73851;-66
2023/09/26 00:22:45;;;;;;;30.10;19.50;;;;;;;21.62;66.99;101332.02;108067;1254;70802;-66
2023/09/26 00:25:12;;;;;;;27.20;19.10;;;;;;;21.61;67.11;101331.56;108080;1256;72671;-65
2023/09/26 00:27:39;;;;;;;30.60;20.50;;;;;;;21.56;67.05;101333.76;107892;1254;61908;-66
2023/09/26 00:30:10;;;;;;;35.20;20.40;;;;;;;21.56;67.32;101335.22;107914;1255;60404;-66
2023/09/26 00:32:38;;;;;;;22.10;15.80;;;;;;;21.60;67.04;101343.17;107922;1258;73834;-67
2023/09/26 00:35:13;;;;;;;28.10;18.90;;;;;;;21.75;66.60;101340.10;107883;1256;68888;-65
2023/09/26 00:37:41;;;;;;;29.70;18.70;;;;;;;21.81;66.46;101343.10;107972;1256;71810;-68
2023/09/26 00:40:12;;;;;;;27.00;18.90;;;;;;;21.78;66.71;101343.68;107903;1260;61318;-66
2023/09/26 00:42:40;;;;;;;32.30;21.00;;;;;;;21.90;66.40;101345.54;107896;1259;60607;-66
2023/09/26 00:45:08;;;;;;;23.70;16.60;;;;;;;21.77;67.13;101346.59;107871;1254;73872;-66
2023/09/26 00:47:35;;;;;;;31.70;22.20;;;;;;;21.76;67.31;101345.22;107934;1254;69092;-66
2023/09/26 00:50:05;;;;;;;35.20;22.00;;;;;;;21.83;67.26;101347.09;107936;1256;72667;-66
2023/09/26 00:52:33;;;;;;;37.60;23.70;;;;;;;21.83;67.60;101346.05;107992;1257;60458;-65
2023/09/26 00:55:03;;;;;;;35.60;23.20;;;;;;;21.83;67.58;101341.34;107904;1255;60208;-65
2023/09/26 00:57:31;;;;;;;33.80;22.70;;;;;;;21.87;67.79;101346.26;108004;1254;73795;-66
2023/09/26 01:00:00;;;;;;;40.90;24.00;;;;;;;21.96;67.63;101346.55;107930;1254;69988;-66
2023/09/26 01:02:28;;;;;;;38.80;24.40;;;;;;;22.01;67.50;101345.02;107964;1254;72679;-65
2023/09/26 01:04:56;;;;;;;35.70;23.70;;;;;;;22.08;67.32;101348.30;107986;1258;60498;-67
2023/09/26 01:07:23;;;;;;;40.90;24.30;;;;;;;22.11;67.42;101345.81;107994;1258;60300;-66
2023/09/26 01:09:51;;;;;;;38.20;24.30;;;;;;;22.09;67.55;101346.99;107909;1260;73825;-66
2023/09/26 01:12:19;;;;;;;39.90;23.90;;;;;;;22.13;67.57;101342.65;107911;1255;70616;-66
2023/09/26 01:14:47;;;;;;;42.50;25.10;;;;;;;22.19;67.42;101343.66;107896;1257;70484;-66
2023/09/26 01:17:15;;;;;;;33.70;21.50;;;;;;;22.09;67.73;101347.01;107926;1257;62128;-66
2023/09/26 01:19:43;;;;;;;39.80;24.90;;;;;;;22.13;67.95;101350.88;107947;1255;60345;-66
2023/09/26 01:22:13;;;;;;;37.70;23.90;;;;;;;22.16;67.93;101347.95;108001;1259;73877;-66
2023/09/26 01:24:43;;;;;;;35.60;23.40;;;;;;;22.13;67.93;101348.52;107912;1256;70123;-66
2023/09/26 01:27:11;;;;;;;32.70;22.30;;;;;;;22.12;68.08;101345.39;107944;1254;74970;-66
2023/09/26 01:29:39;;;;;;;34.90;22.80;;;;;;;22.06;68.36;101342.77;107960;1256;61787;-66
2023/09/26 01:32:06;;;;;;;38.10;24.00;;;;;;;22.04;68.51;101347.17;107967;1255;60417;-66
2023/09/26 01:34:34;;;;;;;38.60;23.70;;;;;;;22.08;68.42;101349.04;108006;1259;72648;-66
2023/09/26 01:37:02;;;;;;;34.10;22.40;;;;;;;22.14;68.00;101350.45;107918;1257;70486;-65
2023/09/26 01:39:30;;;;;;;31.30;23.10;;;;;;;22.03;68.45;101348.45;107867;1260;72806;-69
2023/09/26 01:41:57;;;;;;;32.70;23.40;;;;;;;21.82;69.16;101352.13;107845;1254;62245;-65
2023/09/26 01:44:25;;;;;;;34.90;23.40;;;;;;;21.77;69.41;101348.17;108006;1256;59727;-65
2023/09/26 01:46:53;;;;;;;37.50;23.80;;;;;;;21.76;69.64;101352.73;107827;1260;71784;-66
2023/09/26 01:49:22;;;;;;;35.80;23.40;;;;;;;21.84;69.53;101350.23;107822;1256;69839;-66
2023/09/26 01:51:49;;;;;;;35.80;22.40;;;;;;;21.93;69.30;101354.99;107872;1257;72699;-65
2023/09/26 01:54:17;;;;;;;33.40;22.10;;;;;;;22.07;68.80;101358.98;107907;1260;61968;-68
2023/09/26 01:56:44;;;;;;;30.70;20.60;;;;;;;22.06;68.75;101361.00;107909;1257;60248;-65
2023/09/26 01:59:11;;;;;;;33.90;22.40;;;;;;;21.96;68.96;101363.40;107850;1258;72660;-66
2023/09/26 02:01:39;;;;;;;38.20;23.50;;;;;;;21.92;69.07;101362.42;107884;1257;69951;-66
2023/09/26 02:04:06;;;;;;;32.80;21.70;;;;;;;22.05;68.54;101365.49;107703;1256;72709;-66
2023/09/26 02:06:34;;;;;;;34.40;21.80;;;;;;;22.06;68.39;101365.99;107844;1260;62753;-65
2023/09/26 02:09:01;;;;;;;34.00;21.00;;;;;;;22.13;68.31;101371.08;107887;1260;60517;-65
2023/09/26 02:11:29;;;;;;;36.90;22.40;;;;;;;22.19;67.89;101373.16;107842;1256;73850;-66
2023/09/26 02:13:57;;;;;;;30.80;21.70;;;;;;;22.11;68.10;101369.23;107869;1256;70080;-66
2023/09/26 02:16:24;;;;;;;35.10;22.30;;;;;;;22.02;68.58;101371.04;107874;1257;72723;-66
2023/09/26 02:18:52;;;;;;;30.10;20.80;;;;;;;21.97;68.56;101370.63;107929;1256;62292;-66
2023/09/26 02:21:20;;;;;;;31.20;21.30;;;;;;;21.95;68.65;101372.91;107756;1260;60323;-66
2023/09/26 02:23:47;;;;;;;33.70;22.30;;;;;;;22.06;68.34;101372.79;107975;1256;73840;-66
2023/09/26 02:26:19;;;;;;;32.10;22.10;;;;;;;22.20;68.07;101375.80;107934;1254;70189;-66
2023/09/26 02:28:46;;;;;;;;;;;;;;;22.18;67.94;101375.55;108029;1257;72973;-66
2023/09/26 02:31:15;;;;;;;35.10;21.80;;;;;;;22.07;68.09;101375.93;107981;1254;60381;-66
2023/09/26 02:33:43;;;;;;;32.50;21.70;;;;;;;21.91;68.81;101375.87;107997;1254;60467;-64
2023/09/26 02:36:10;;;;;;;34.60;22.90;;;;;;;21.94;68.82;101380.69;107902;1254;73934;-65
2023/09/26 02:38:38;;;;;;;35.80;23.60;;;;;;;21.90;68.96;101385.98;107929;1254;69220;-66
2023/09/26 02:41:05;;;;;;;41.10;23.40;;;;;;;21.95;68.69;101383.48;107928;1257;72484;-69
2023/09/26 02:43:32;;;;;;;36.50;23.80;;;;;;;21.91;68.87;101385.52;107971;1258;61638;-66
2023/09/26 02:46:01;;;;;;;35.40;23.30;;;;;;;21.89;68.89;101386.77;108009;1255;60497;-65
2023/09/26 02:48:29;;;;;;;32.30;21.90;;;;;;;21.91;68.83;101385.86;107966;1254;74123;-64
2023/09/26 02:51:04;;;;;;;32.70;22.80;;;;;;;21.94;68.77;101386.04;107958;1254;70365;-68
2023/09/26 02:53:31;;;;;;;34.00;24.20;;;;;;;22.09;68.55;101390.13;107902;1255;71002;-66
2023/09/26 02:55:59;;;;;;;33.60;23.70;;;;;;;22.03;68.55;101389.24;107927;1254;61683;-65
2023/09/26 02:58:26;;;;;;;31.20;22.40;;;;;;;21.82;69.19;101389.84;107943;1254;59948;-65
2023/09/26 03:00:54;;;;;;;38.00;23.20;;;;;;;21.75;69.67;101395.14;107860;1254;75974;-64
2023/09/26 03:03:22;;;;;;;33.00;22.60;;;;;;;21.88;69.31;101394.28;107884;1255;69821;-66
2023/09/26 03:05:50;;;;;;;35.10;23.40;;;;;;;22.03;68.85;101400.35;107918;1255;71459;-66
2023/09/26 03:08:18;;;;;;;35.90;22.80;;;;;;;22.05;68.69;101399.50;107949;1254;60436;-66
2023/09/26 03:10:46;;;;;;;43.50;23.40;;;;;;;22.04;68.81;101401.54;107923;1254;60422;-66
2023/09/26 03:13:13;;;;;;;35.80;21.20;;;;;;;22.10;68.60;101403.98;107868;1255;74358;-66
2023/09/26 03:15:41;;;;;;;36.50;23.70;;;;;;;22.13;68.40;101398.61;107979;1255;70021;-66
2023/09/26 03:18:09;;;;;;;37.30;24.50;;;;;;;22.15;68.47;101398.45;107879;1255;72633;-66
2023/09/26 03:20:38;;;;;;;33.00;22.80;;;;;;;22.41;67.47;101401.27;107861;1254;60791;-66
2023/09/26 03:23:06;;;;;;;34.40;23.50;;;;;;;22.41;67.38;101400.33;107977;1254;60300;-66
2023/09/26 03:25:33;;;;;;;35.30;22.70;;;;;;;22.39;67.41;101407.64;107880;1254;72942;-67
2023/09/26 03:28:02;;;;;;;34.90;23.40;;;;;;;22.37;67.34;101407.43;107986;1254;69625;-67
2023/09/26 03:30:29;;;;;;;37.50;24.80;;;;;;;22.36;67.36;101406.73;107885;1257;72703;-66
2023/09/26 03:32:58;;;;;;;36.90;25.10;;;;;;;22.49;66.95;101402.02;107960;1254;61619;-66
2023/09/26 03:35:25;;;;;;;35.40;23.90;;;;;;;22.44;66.95;101403.77;107938;1255;60284;-66
2023/09/26 03:37:53;;;;;;;34.60;24.00;;;;;;;22.45;66.82;101407.63;107795;1254;74458;-64
2023/09/26 03:40:20;;;;;;;26.40;19.20;;;;;;;22.51;66.52;101405.59;107956;1254;69946;-66
2023/09/26 03:42:48;;;;;;;36.50;23.30;;;;;;;22.55;66.38;101412.86;107919;1259;72453;-65
2023/09/26 03:45:15;;;;;;;34.60;22.60;;;;;;;22.57;66.50;101409.13;107918;1257;60386;-65
2023/09/26 03:47:43;;;;;;;36.40;23.80;;;;;;;22.52;66.57;101407.36;107958;1254;60344;-66
2023/09/26 03:50:10;;;;;;;42.40;24.50;;;;;;;22.41;66.91;101409.10;108018;1258;73756;-64
2023/09/26 03:52:38;;;;;;;32.40;21.80;;;;;;;22.24;67.43;101407.89;108044;1254;69035;-66
2023/09/26 03:55:06;;;;;;;38.70;22.40;;;;;;;22.34;67.16;101405.14;107983;1254;71385;-66
2023/09/26 03:57:34;;;;;;;31.70;21.90;;;;;;;22.30;67.33;101410.02;108070;1257;60400;-64
2023/09/26 04:00:16;;;;;;;33.10;23.10;;;;;;;22.25;67.41;101408.39;108025;1254;60271;-66
2023/09/26 04:02:44;;;;;;;36.80;23.20;;;;;;;22.28;67.45;101411.40;107979;1254;72820;-66
2023/09/26 04:05:12;;;;;;;29.00;18.50;;;;;;;22.29;67.52;101412.44;108064;1254;69286;-66
2023/09/26 04:07:39;;;;;;;33.10;21.80;;;;;;;22.37;67.17;101412.80;107924;1259;72897;-66
2023/09/26 04:10:08;;;;;;;35.20;22.80;;;;;;;22.38;67.32;101413.83;107922;1258;60488;-67
2023/09/26 04:12:35;;;;;;;36.40;22.50;;;;;;;22.37;67.35;101416.70;108003;1254;60039;-67
2023/09/26 04:15:03;;;;;;;37.90;22.70;;;;;;;22.42;67.02;101418.37;107942;1254;72413;-66
2023/09/26 04:17:30;;;;;;;30.20;21.30;;;;;;;22.42;67.17;101420.02;107860;1254;69495;-66
2023/09/26 04:19:58;;;;;;;33.30;22.30;;;;;;;22.41;67.27;101420.77;108002;1256;72871;-66
2023/09/26 04:22:26;;;;;;;34.90;21.80;;;;;;;22.54;66.57;101423.27;107937;1254;61749;-66
2023/09/26 04:24:54;;;;;;;34.90;21.70;;;;;;;22.57;66.61;101423.80;107999;1256;60320;-65
2023/09/26 04:27:22;;;;;;;36.10;21.50;;;;;;;22.64;66.62;101425.12;107945;1259;73752;-66
2023/09/26 04:29:51;;;;;;;35.50;21.80;;;;;;;22.69;66.45;101420.46;107976;1254;69763;-67
2023/09/26 04:32:19;;;;;;;30.20;21.50;;;;;;;22.68;66.43;101424.70;107940;1254;71415;-66
2023/09/26 04:34:46;;;;;;;36.10;21.20;;;;;;;22.65;66.51;101429.38;107936;1257;61734;-65
2023/09/26 04:37:16;;;;;;;32.60;21.60;;;;;;;22.62;66.49;101435.11;107933;1254;60048;-66
2023/09/26 04:39:43;;;;;;;36.00;21.70;;;;;;;22.66;66.38;101436.66;107962;1259;73854;-66
2023/09/26 04:42:11;;;;;;;30.30;22.10;;;;;;;22.66;66.41;101439.31;107808;1258;70701;-66
2023/09/26 04:44:38;;;;;;;28.50;20.20;;;;;;;22.67;66.58;101440.00;107889;1258;72620;-66
2023/09/26 04:47:06;;;;;;;28.30;19.40;;;;;;;22.77;66.19;101437.66;107811;1257;60740;-66
2023/09/26 04:49:36;;;;;;;31.20;20.50;;;;;;;22.79;66.02;101441.83;107854;1256;60924;-66
2023/09/26 04:52:04;;;;;;;37.20;22.10;;;;;;;22.81;66.09;101441.48;107864;1257;73915;-66
2023/09/26 04:54:31;;;;;;;32.30;21.10;;;;;;;22.80;66.04;101443.52;108044;1257;68883;-66
2023/09/26 04:56:59;;;;;;;34.90;20.20;;;;;;;22.79;66.34;101445.91;107810;1256;73389;-67
2023/09/26 04:59:27;;;;;;;33.20;21.60;;;;;;;22.91;66.01;101445.55;107860;1256;61766;-65
2023/09/26 05:01:54;;;;;;;33.90;22.10;;;;;;;22.98;65.92;101447.36;107934;1256;60300;-68
2023/09/26 05:04:22;;;;;;;32.40;20.70;;;;;;;23.00;65.92;101443.34;107846;1257;73976;-65
2023/09/26 05:06:49;;;;;;;31.60;21.30;;;;;;;23.00;65.69;101445.59;107850;1257;68872;-66
2023/09/26 05:09:17;;;;;;;31.00;20.80;;;;;;;22.90;65.94;101444.00;107852;1257;72784;-65
2023/09/26 05:11:44;;;;;;;32.60;19.80;;;;;;;23.02;65.61;101445.15;107848;1257;61201;-66
2023/09/26 05:14:12;;;;;;;30.30;20.10;;;;;;;23.05;65.22;101448.92;107897;1257;60441;-66
2023/09/26 05:16:41;;;;;;;29.00;19.30;;;;;;;22.97;65.22;101448.91;107857;1257;73665;-66
2023/09/26 05:19:08;;;;;;;26.90;19.90;;;;;;;22.92;65.26;101451.38;107853;1258;70418;-66
2023/09/26 05:21:36;;;;;;;29.10;19.50;;;;;;;22.91;65.11;101446.78;107912;1254;72803;-66
2023/09/26 05:24:04;;;;;;;30.50;19.50;;;;;;;22.85;65.26;101448.95;108008;1257;61637;-66
2023/09/26 05:26:32;;;;;;;30.50;19.10;;;;;;;22.82;65.32;101453.79;107833;1256;60352;-67
2023/09/26 05:28:59;;;;;;;29.00;19.90;;;;;;;22.94;64.84;101454.11;107861;1257;73757;-67
2023/09/26 05:31:31;;;;;;;29.20;18.40;;;;;;;22.98;64.44;101455.25;107947;1255;69373;-66
2023/09/26 05:33:59;;;;;;;27.60;18.00;;;;;;;22.93;64.46;101456.48;107862;1260;72692;-66
2023/09/26 05:36:26;;;;;;;29.00;19.10;;;;;;;22.96;64.35;101454.30;107844;1256;61677;-65
2023/09/26 05:38:54;;;;;;;26.90;18.50;;;;;;;23.08;63.78;101460.67;107896;1255;61177;-67
2023/09/26 05:41:22;;;;;;;30.90;17.80;;;;;;;23.22;63.40;101464.88;107866;1258;74110;-67
2023/09/26 05:43:49;;;;;;;35.10;19.10;;;;;;;23.23;63.26;101466.46;108016;1257;68734;-65
2023/09/26 05:46:17;;;;;;;32.90;17.90;;;;;;;23.17;63.42;101468.14;107918;1256;73266;-67
2023/09/26 05:48:45;;;;;;;37.10;19.50;;;;;;;23.18;63.21;101465.71;107867;1256;61629;-67
2023/09/26 05:51:12;;;;;;;28.40;19.50;;;;;;;23.18;62.95;101466.41;107874;1255;60350;-66
2023/09/26 05:53:40;;;;;;;29.90;19.40;;;;;;;23.13;62.75;101463.40;108061;1257;73890;-66
2023/09/26 05:56:07;;;;;;;30.00;19.80;;;;;;;23.11;63.04;101464.38;107962;1257;70890;-66
2023/09/26 05:58:35;;;;;;;29.00;19.60;;;;;;;23.16;62.77;101466.05;107855;1258;72628;-66
2023/09/26 06:01:08;;;;;;;26.80;19.10;;;;;;;23.24;62.73;101467.83;107914;1256;61743;-65
2023/09/26 06:03:36;;;;;;;25.70;19.80;;;;;;;23.34;62.35;101471.06;107889;1256;60498;-67
2023/09/26 06:06:04;;;;;;;30.70;18.70;;;;;;;23.51;62.09;101463.76;107832;1256;73838;-66
2023/09/26 06:08:33;;;;;;;28.60;19.10;;;;;;;23.59;62.00;101467.33;107870;1257;69915;-67
2023/09/26 06:11:02;;;;;;;24.80;18.20;;;;;;;23.74;61.45;101471.55;107820;1256;72410;-67
2023/09/26 06:13:30;;;;;;;25.90;17.70;;;;;;;23.82;61.10;101469.88;107927;1257;60464;-66
2023/09/26 06:15:57;;;;;;;26.80;18.80;;;;;;;23.83;60.59;101472.83;107974;1257;60091;-67
2023/09/26 06:18:25;;;;;;;25.20;18.20;;;;;;;23.92;60.39;101473.84;108004;1256;74221;-70
2023/09/26 06:20:53;;;;;;;28.30;17.30;;;;;;;24.01;60.07;101473.31;107856;1255;70436;-67
2023/09/26 06:23:21;;;;;;;33.80;18.40;;;;;;;24.11;59.79;101474.45;107825;1257;72676;-65
2023/09/26 06:26:01;;;;;;;25.30;18.50;;;;;;;24.23;59.31;101472.28;107862;1256;62240;-67
2023/09/26 06:28:29;;;;;;;40.00;18.90;;;;;;;24.23;58.97;101474.45;108065;1256;60468;-66
2023/09/26 06:31:02;;;;;;;35.80;18.20;;;;;;;24.29;58.80;101479.95;107884;1255;73770;-65
2023/09/26 06:33:30;;;;;;;33.90;19.40;;;;;;;24.30;58.22;101481.64;108000;1255;70557;-67
2023/09/26 06:35:58;;;;;;;35.50;19.10;;;;;;;24.10;58.34;101481.16;107901;1260;71343;-63
2023/09/26 06:38:25;;;;;;;31.20;18.60;;;;;;;24.03;58.23;101481.27;107839;1257;61829;-67
2023/09/26 06:41:02;;;;;;;29.70;17.20;;;;;;;23.97;58.74;101485.64;107855;1255;60408;-67
2023/09/26 06:43:30;;;;;;;24.90;17.40;;;;;;;24.10;58.33;101485.64;108010;1255;74315;-67
2023/09/26 06:45:57;;;;;;;27.30;17.10;;;;;;;24.20;58.24;101485.77;107979;1256;69167;-67
2023/09/26 06:48:25;;;;;;;28.90;18.80;;;;;;;24.33;58.25;101489.65;107904;1258;72739;-66
2023/09/26 06:50:53;;;;;;;30.10;17.30;;;;;;;24.46;57.74;101487.84;107921;1256;61107;-66
2023/09/26 06:53:22;;;;;;;26.30;16.70;;;;;;;24.64;57.28;101490.14;107910;1256;60029;-66
2023/09/26 06:55:49;;;;;;;24.80;16.60;;;;;;;24.73;56.99;101491.02;107909;1256;73848;-66
2023/09/26 06:58:17;;;;;;;23.50;16.40;;;;;;;24.89;56.56;101494.53;107849;1256;70424;-66
2023/09/26 07:00:44;;;;;;;24.30;16.40;;;;;;;25.05;56.04;101494.02;107878;1256;71027;-66
2023/09/26 07:03:12;;;;;;;23.00;16.00;;;;;;;25.15;55.55;101496.30;107958;1256;61734;-67
2023/09/26 07:05:39;;;;;;;24.90;17.90;;;;;;;25.04;55.27;101497.70;107902;1256;60364;-67
2023/09/26 07:08:07;;;;;;;23.50;17.10;;;;;;;25.12;54.87;101490.79;107823;1256;72671;-65
2023/09/26 07:10:37;;;;;;;27.50;17.70;;;;;;;25.09;54.88;101488.88;107862;1256;70646;-68
2023/09/26 07:13:05;;;;;;;22.00;15.30;;;;;;;25.15;55.07;101488.72;107979;1256;72215;-67
2023/09/26 07:15:42;;;;;;;21.30;16.60;;;;;;;25.34;54.55;101485.34;108009;1258;60494;-67
2023/09/26 07:18:11;;;;;;;25.80;16.40;;;;;;;25.40;54.65;101483.27;107845;1256;60114;-66
2023/09/26 07:20:48;;;;;;;19.90;15.30;;;;;;;25.52;53.93;101479.11;108009;1256;76219;-66
2023/09/26 07:23:15;;;;;;;27.90;16.70;;;;;;;25.74;53.39;101478.39;107927;1258;70151;-67
2023/09/26 07:25:43;;;;;;;21.30;14.60;;;;;;;26.02;53.20;101477.13;107897;1256;73300;-67
2023/09/26 07:28:10;;;;;;;27.10;14.00;;;;;;;26.40;52.46;101474.17;107916;1254;60435;-67
2023/09/26 07:30:38;;;;;;;21.60;15.60;;;;;;;26.83;51.39;101471.71;107935;1254;60182;-67
2023/09/26 07:33:05;;;;;;;21.30;15.10;;;;;;;27.02;49.55;101470.64;107964;1254;72640;-67
2023/09/26 07:35:33;;;;;;;23.50;15.60;;;;;;;27.14;49.48;101467.77;107988;1258;71483;-67
2023/09/26 07:38:01;;;;;;;19.10;14.30;;;;;;;27.42;48.88;101470.11;107931;1254;72676;-68
2023/09/26 07:40:29;;;;;;;21.70;14.40;;;;;;;27.89;47.37;101468.33;107976;1254;60477;-67
2023/09/26 07:42:59;;;;;;;21.40;15.00;;;;;;;28.21;46.33;101468.86;107828;1254;60419;-67
2023/09/26 07:45:26;;;;;;;19.90;12.90;;;;;;;28.71;45.69;101464.51;107994;1254;76101;-68
2023/09/26 07:47:54;;;;;;;19.10;12.80;;;;;;;29.32;44.38;101462.27;107997;1258;71175;-67
2023/09/26 07:50:21;;;;;;;20.70;12.40;;;;;;;30.10;42.83;101460.84;107997;1254;71067;-66
2023/09/26 07:52:49;;;;;;;15.20;12.00;;;;;;;30.78;41.07;101456.27;107965;1257;60445;-67
2023/09/26 07:55:16;;;;;;;17.30;11.40;;;;;;;31.17;40.05;101452.00;107990;1254;59951;-68
2023/09/26 07:57:44;;;;;;;19.20;11.40;;;;;;;31.49;39.31;101453.21;108003;1254;73962;-69
2023/09/26 08:00:13;;;;;;;22.00;10.90;;;;;;;31.80;38.60;101450.15;107965;1254;69295;-67
2023/09/26 08:02:40;;;;;;;19.00;10.20;;;;;;;32.31;38.25;101448.31;108055;1254;72745;-66
2023/09/26 08:05:08;;;;;;;22.00;11.20;;;;;;;32.65;37.02;101445.38;108037;1254;60508;-67
2023/09/26 08:10:29;;;;;;;14.20;9.30;;;;;;;31.97;38.00;101442.26;104885;1292;600909;-66
2023/09/26 08:12:58;;;;;;;10.40;9.10;;;;;;;33.51;36.06;101433.77;107908;1257;60070;-67
2023/09/26 08:15:30;;;;;;;11.30;8.70;;;;;;;34.29;34.47;101436.91;107670;1257;59317;-67
2023/09/26 08:17:58;;;;;;;13.80;7.80;;;;;;;34.74;33.93;101432.20;107733;1257;65625;-67
2023/09/26 08:20:25;;;;;;;21.30;8.40;;;;;;;35.29;33.44;101425.65;107682;1257;62448;-68
2023/09/26 08:22:53;;;;;;;12.90;8.40;;;;;;;35.77;32.14;101426.00;107716;1263;72632;-67
2023/09/26 08:25:21;;;;;;;15.00;7.70;;;;;;;35.98;31.77;101422.82;107734;1257;59330;-67
2023/09/26 08:27:48;;;;;;;15.10;8.60;;;;;;;36.21;31.18;101424.60;107925;1257;59191;-64
2023/09/26 08:30:16;;;;;;;13.20;8.30;;;;;;;36.16;30.30;101424.11;107935;1257;63319;-68
2023/09/26 08:32:43;;;;;;;23.50;13.20;;;;;;;35.88;30.30;101422.97;107954;1256;61587;-67
2023/09/26 08:35:11;;;;;;;53.10;31.90;;;;;;;35.65;30.90;101419.83;107953;1257;62529;-68
2023/09/26 08:37:40;;;;;;;157.10;88.20;;;;;;;35.56;31.06;101419.80;107909;1257;59462;-69
2023/09/26 08:40:11;;;;;;;71.10;41.50;;;;;;;35.65;31.11;101417.90;108000;1254;59343;-67
2023/09/26 08:42:42;;;;;;;16.80;10.30;;;;;;;35.87;30.71;101417.23;107958;1254;75210;-67
2023/09/26 08:45:10;;;;;;;12.10;8.00;;;;;;;36.06;29.83;101416.91;108034;1254;61322;-67
2023/09/26 08:47:42;;;;;;;15.30;8.00;;;;;;;36.28;29.67;101415.83;107714;1256;62980;-66
2023/09/26 08:50:10;;;;;;;17.20;7.90;;;;;;;36.64;28.82;101412.55;107990;1257;59470;-67
2023/09/26 08:52:37;;;;;;;14.20;7.10;;;;;;;36.97;28.80;101412.52;107931;1254;59510;-67
2023/09/26 08:55:05;;;;;;;13.80;8.20;;;;;;;37.43;28.50;101405.66;108048;1254;64597;-68
2023/09/26 08:57:34;;;;;;;17.20;7.50;;;;;;;37.68;28.17;101404.59;107972;1254;72591;-68
2023/09/26 09:00:04;;;;;;;27.20;14.60;;;;;;;37.98;27.86;101398.98;107998;1254;62573;-68
2023/09/26 09:02:32;;;;;;;54.00;27.10;;;;;;;38.12;27.19;101398.83;107987;1259;59493;-69
2023/09/26 09:05:00;;;;;;;17.90;8.20;;;;;;;37.86;27.31;101398.17;107976;1254;59485;-67
2023/09/26 09:07:28;;;;;;;14.40;6.60;;;;;;;37.81;27.79;101402.04;107976;1255;62894;-68
2023/09/26 09:10:10;;;;;;;31.20;13.20;;;;;;;37.80;27.55;101401.36;107998;1254;61525;-68
2023/09/26 09:12:40;;;;;;;14.00;7.20;;;;;;;37.94;27.42;101404.94;107995;1257;63705;-69
2023/09/26 09:15:14;;;;;;;15.60;7.00;;;;;;;38.38;27.02;101408.21;108010;1260;59505;-68
2023/09/26 09:17:42;;;;;;;12.10;7.20;;;;;;;38.87;26.34;101408.25;107937;1254;59367;-68
2023/09/26 09:20:11;;;;;;;10.10;7.10;;;;;;;39.01;25.79;101408.80;108070;1259;66388;-68
2023/09/26 09:22:38;;;;;;;13.70;6.50;;;;;;;38.83;25.94;101405.37;108049;1254;61349;-68
2023/09/26 09:25:06;;;;;;;14.40;7.80;;;;;;;38.57;26.06;101407.17;108042;1254;63885;-68
2023/09/26 09:27:43;;;;;;;10.80;6.80;;;;;;;37.99;26.53;101408.20;107855;1257;60972;-68
2023/09/26 09:30:19;;;;;;;16.20;6.80;;;;;;;37.61;26.79;101405.84;107940;1254;59371;-68
2023/09/26 09:32:47;;;;;;;14.30;6.80;;;;;;;37.57;26.75;101409.17;108035;1255;64141;-68
2023/09/26 09:35:14;;;;;;;10.50;7.50;;;;;;;37.63;26.56;101409.11;108072;1254;63314;-68
2023/09/26 09:37:46;;;;;;;9.80;6.70;;;;;;;37.55;26.71;101407.39;108095;1254;63707;-68
2023/09/26 09:40:19;;;;;;;15.90;8.30;;;;;;;37.30;27.06;101413.66;107994;1260;59633;-68
2023/09/26 09:42:48;;;;;;;9.40;6.60;;;;;;;37.17;27.45;101415.21;108076;1259;59115;-69
2023/09/26 09:45:19;;;;;;;12.00;6.80;;;;;;;37.25;27.68;101412.40;108015;1254;75212;-69
2023/09/26 09:47:48;;;;;;;14.60;6.90;;;;;;;37.67;27.15;101412.37;107936;1254;60300;-68
2023/09/26 09:50:16;;;;;;;14.20;6.90;;;;;;;37.73;26.68;101409.24;108067;1258;62705;-68
2023/09/26 09:52:44;;;;;;;13.50;6.80;;;;;;;37.40;27.03;101406.81;108008;1254;59507;-68
2023/09/26 09:55:16;;;;;;;12.30;7.40;;;;;;;36.99;27.75;101413.26;108067;1254;59609;-68
2023/09/26 09:57:45;;;;;;;13.50;7.40;;;;;;;36.66;27.87;101414.80;108071;1254;62846;-68
2023/09/26 10:00:14;;;;;;;11.00;7.40;;;;;;;36.45;28.13;101415.44;108086;1254;63533;-68
2023/09/26 10:02:41;;;;;;;10.90;7.20;;;;;;;36.25;28.17;101411.60;107977;1254;62521;-68
2023/09/26 10:05:12;;;;;;;12.90;6.70;;;;;;;36.10;28.49;101410.67;108021;1254;59749;-69
2023/09/26 10:07:41;;;;;;;10.60;7.10;;;;;;;36.29;28.42;101412.23;107960;1256;59638;-69
2023/09/26 10:10:09;;;;;;;9.70;6.80;;;;;;;36.51;27.69;101410.77;108060;1258;66069;-69
2023/09/26 10:12:40;;;;;;;17.20;8.10;;;;;;;36.59;27.57;101405.78;108115;1254;61450;-68
2023/09/26 10:15:26;;;;;;;17.40;7.10;;;;;;;36.49;27.99;101403.35;108031;1258;65811;-68
2023/09/26 10:17:53;;;;;;;11.80;7.50;;;;;;;36.56;27.94;101404.32;107904;1255;59714;-69
2023/09/26 10:20:21;;;;;;;15.10;7.40;;;;;;;36.67;28.18;101402.79;107917;1260;59342;-68
2023/09/26 10:23:09;;;;;;;13.60;7.20;;;;;;;36.93;28.26;101399.82;107796;1262;74121;-67
2023/09/26 10:25:37;;;;;;;10.40;7.40;;;;;;;37.22;27.79;101394.20;108011;1254;62397;-68
2023/09/26 10:28:04;;;;;;;10.80;7.00;;;;;;;37.61;27.38;101390.88;108016;1253;63778;-68
2023/09/26 10:30:45;;;;;;;11.30;6.80;;;;;;;38.00;26.83;101388.36;108046;1254;62318;-68
2023/09/26 10:33:13;;;;;;;11.40;7.40;;;;;;;38.50;26.45;101392.27;108030;1254;59557;-67
2023/09/26 10:36:02;;;;;;;18.10;8.00;;;;;;;38.67;26.06;101387.72;107994;1255;65256;-68
2023/09/26 10:38:29;;;;;;;13.10;7.20;;;;;;;38.66;26.09;101386.66;108065;1254;61335;-67
2023/09/26 10:40:57;;;;;;;9.20;6.70;;;;;;;38.59;26.19;101388.61;108068;1254;62620;-67
2023/09/26 10:43:27;;;;;;;12.50;6.70;;;;;;;38.82;25.78;101385.00;108060;1259;61012;-67
2023/09/26 10:45:58;;;;;;;17.30;7.20;;;;;;;38.99;25.75;101381.66;108014;1254;59512;-69
2023/09/26 10:48:26;;;;;;;12.30;7.00;;;;;;;39.39;25.23;101381.39;108085;1255;64115;-68
2023/09/26 10:50:54;;;;;;;12.70;6.80;;;;;;;39.23;25.21;101380.54;107996;1253;73070;-68
2023/09/26 10:53:22;;;;;;;12.20;7.10;;;;;;;38.84;25.71;101380.98;107901;1254;62440;-68
2023/09/26 10:55:49;;;;;;;13.50;6.40;;;;;;;38.87;25.77;101376.36;107958;1259;59553;-69
2023/09/26 10:58:20;;;;;;;11.90;6.90;;;;;;;39.18;25.54;101372.24;107819;1253;59447;-68
2023/09/26 11:01:11;;;;;;;11.40;6.50;;;;;;;39.11;25.36;101377.06;108045;1257;64101;-67
2023/09/26 11:03:38;;;;;;;11.40;6.90;;;;;;;38.84;25.28;101378.83;108011;1258;71389;-67
2023/09/26 11:06:08;;;;;;;17.10;7.50;;;;;;;38.46;25.45;101379.69;108039;1257;64195;-69
2023/09/26 11:08:56;;;;;;;10.80;6.60;;;;;;;37.84;26.24;101375.48;107824;1257;59558;-68
2023/09/26 11:11:24;;;;;;;16.40;7.00;;;;;;;37.51;26.86;101373.70;108043;1254;59502;-66
2023/09/26 11:13:52;;;;;;;11.30;6.10;;;;;;;37.51;26.93;101376.27;107994;1253;75255;-67